Time;durP1;ratioP1;P1;durP2;ratioP2;P2;SDS_P1;SDS_P2;PMS_P1;PMS_P2;Temp;Humidity;BMP_temperature;BMP_pressure;BME280_temperature;BME280_humidity;BME280_pressure;Samples;Min_cycle;Max_cycle;Signal;HPM_P1;HPM_P2
2022/05/12 00:01:58;;;;;;;13.90;13.00;;;19.30;7.10;;;;;;4937613;29;20422;-74
2022/05/12 00:04:25;;;;;;;15.43;14.50;;;19.10;8.00;;;;;;4936121;29;20200;-74
2022/05/12 00:06:51;;;;;;;14.67;13.97;;;18.80;8.20;;;;;;4935832;29;20438;-74
2022/05/12 00:09:16;;;;;;;15.80;14.90;;;18.70;9.00;;;;;;4935544;29;20441;-76
2022/05/12 00:11:42;;;;;;;15.00;14.30;;;18.50;8.80;;;;;;4935640;29;20229;-76
2022/05/12 00:14:08;;;;;;;14.70;14.10;;;18.50;8.60;;;;;;4935790;29;20178;-75
2022/05/12 00:16:33;;;;;;;14.07;13.43;;;18.60;9.00;;;;;;4935328;29;20293;-75
2022/05/12 00:18:59;;;;;;;14.27;13.67;;;18.60;8.90;;;;;;4935343;29;20538;-76
2022/05/12 00:21:24;;;;;;;14.90;14.00;;;18.60;8.90;;;;;;4935576;29;20547;-76
2022/05/12 00:23:56;;;;;;;14.43;13.80;;;18.50;8.80;;;;;;4935731;29;20191;-76
2022/05/12 00:26:33;;;;;;;13.50;12.90;;;18.40;9.50;;;;;;4935607;29;20205;-76
2022/05/12 00:29:01;;;;;;;14.07;13.33;;;18.40;9.40;;;;;;4935165;29;20878;-76
2022/05/12 00:31:28;;;;;;;15.60;14.90;;;18.40;9.30;;;;;;4935239;29;20454;-77
2022/05/12 00:33:54;;;;;;;15.77;14.83;;;18.30;9.90;;;;;;4935363;29;20426;-74
2022/05/12 00:36:20;;;;;;;15.30;14.70;;;18.20;9.60;;;;;;4918117;29;20446;-74
2022/05/12 00:38:45;;;;;;;14.03;13.53;;;18.20;9.30;;;;;;4934832;29;20982;-73
2022/05/12 00:41:11;;;;;;;13.50;13.00;;;18.30;9.30;;;;;;4935151;29;20531;-75
2022/05/12 00:43:56;;;;;;;14.40;13.70;;;18.20;9.20;;;;;;4918170;29;20708;-73
2022/05/12 00:46:35;;;;;;;14.70;14.07;;;18.30;9.40;;;;;;4935145;29;20679;-76
2022/05/12 00:49:18;;;;;;;14.00;13.40;;;18.40;9.30;;;;;;4934989;29;20442;-76
2022/05/12 00:51:52;;;;;;;14.50;13.80;;;18.40;9.40;;;;;;4934973;29;20454;-72
2022/05/12 00:54:26;;;;;;;14.60;14.00;;;18.40;9.20;;;;;;4934935;29;20919;-76
2022/05/12 00:56:52;;;;;;;14.77;14.07;;;18.40;9.20;;;;;;4934946;29;20477;-73
2022/05/12 00:59:26;;;;;;;15.10;14.40;;;18.40;8.90;;;;;;4934712;29;20968;-74
2022/05/12 01:01:52;;;;;;;14.70;14.07;;;18.40;9.00;;;;;;4934834;29;20989;-76
2022/05/12 01:04:19;;;;;;;14.00;13.40;;;18.40;9.10;;;;;;4917778;29;20422;-74
2022/05/12 01:06:45;;;;;;;14.70;13.90;;;18.40;8.90;;;;;;4917702;29;20607;-75
2022/05/12 01:09:11;;;;;;;14.13;13.53;;;18.40;9.00;;;;;;4917232;29;20441;-75
2022/05/12 01:11:37;;;;;;;15.07;14.10;;;18.30;9.00;;;;;;4934640;29;20458;-74
2022/05/12 01:14:06;;;;;;;14.77;13.97;;;18.30;8.90;;;;;;4934709;29;20171;-75
2022/05/12 01:16:43;;;;;;;13.63;12.97;;;18.30;8.80;;;;;;4934620;29;20453;-75
2022/05/12 01:19:14;;;;;;;14.60;14.00;;;18.40;8.40;;;;;;4917235;29;20433;-75
2022/05/12 01:21:40;;;;;;;14.50;13.90;;;18.40;8.50;;;;;;4934810;29;20787;-75
2022/05/12 01:24:06;;;;;;;15.00;14.30;;;18.50;7.50;;;;;;4934608;29;20426;-76
2022/05/12 01:26:33;;;;;;;14.63;14.00;;;18.50;7.80;;;;;;4934442;29;20800;-74
2022/05/12 01:28:59;;;;;;;15.13;14.50;;;18.50;7.40;;;;;;4934211;29;20780;-75
2022/05/12 01:31:24;;;;;;;14.20;13.20;;;18.50;7.30;;;;;;4934269;29;20478;-74
2022/05/12 01:33:51;;;;;;;14.73;14.13;;;18.60;7.30;;;;;;4917493;29;20808;-74
2022/05/12 01:36:18;;;;;;;14.53;13.83;;;18.60;7.20;;;;;;4934440;29;20564;-74
2022/05/12 01:38:44;;;;;;;14.20;13.63;;;18.50;7.70;;;;;;4934219;29;20415;-73
2022/05/12 01:41:09;;;;;;;14.13;13.53;;;18.60;7.60;;;;;;4917103;29;20422;-74
2022/05/12 01:43:35;;;;;;;14.23;13.63;;;18.60;7.30;;;;;;4917215;29;20202;-74
2022/05/12 01:46:01;;;;;;;13.90;13.30;;;18.50;7.70;;;;;;4934090;29;20206;-74
2022/05/12 01:48:27;;;;;;;14.60;13.63;;;18.60;7.90;;;;;;4933980;29;20288;-74
2022/05/12 01:50:53;;;;;;;14.27;13.57;;;18.50;8.00;;;;;;4934211;29;20458;-74
2022/05/12 01:53:18;;;;;;;13.30;12.60;;;18.50;8.10;;;;;;4934339;29;20213;-73
2022/05/12 01:55:48;;;;;;;14.50;13.80;;;18.40;8.60;;;;;;4934325;29;20290;-74
2022/05/12 01:58:15;;;;;;;14.07;13.37;;;18.30;8.70;;;;;;4917124;29;20416;-75
2022/05/12 02:00:41;;;;;;;13.73;12.93;;;18.40;8.40;;;;;;4934313;29;20430;-74
2022/05/12 02:03:06;;;;;;;14.50;13.90;;;18.50;8.70;;;;;;4934253;29;20789;-73
2022/05/12 02:05:34;;;;;;;13.87;13.37;;;18.40;8.70;;;;;;4934233;29;20589;-74
2022/05/12 02:08:00;;;;;;;14.93;14.33;;;18.40;8.60;;;;;;4934051;29;20284;-74
2022/05/12 02:10:29;;;;;;;13.87;13.30;;;18.30;9.00;;;;;;4934137;29;20421;-74
2022/05/12 02:12:55;;;;;;;13.60;13.00;;;18.20;9.10;;;;;;4934240;29;20521;-74
2022/05/12 02:15:21;;;;;;;13.20;12.60;;;18.20;9.30;;;;;;4933930;29;20442;-72
2022/05/12 02:17:49;;;;;;;13.10;12.50;;;18.10;9.20;;;;;;4933802;29;20195;-73
2022/05/12 02:20:15;;;;;;;14.30;13.50;;;18.00;9.70;;;;;;4935489;29;20821;-73
2022/05/12 02:22:41;;;;;;;14.83;14.10;;;17.90;9.80;;;;;;4937545;29;20418;-73
2022/05/12 02:25:08;;;;;;;18.83;14.57;;;17.80;9.90;;;;;;4937603;29;20418;-73
2022/05/12 02:27:34;;;;;;;13.07;12.57;;;17.90;9.40;;;;;;4937407;29;20234;-74
2022/05/12 02:29:59;;;;;;;13.43;12.70;;;17.90;10.00;;;;;;4937473;29;20450;-75
2022/05/12 02:32:27;;;;;;;13.37;12.77;;;17.90;9.90;;;;;;4937295;29;20211;-73
2022/05/12 02:34:54;;;;;;;13.47;12.87;;;18.00;9.80;;;;;;4920356;29;20213;-75
2022/05/12 02:37:20;;;;;;;12.77;12.23;;;18.00;9.90;;;;;;4936972;29;20474;-74
2022/05/12 02:39:45;;;;;;;14.20;13.60;;;18.00;9.70;;;;;;4937273;29;20414;-74
2022/05/12 02:42:11;;;;;;;13.20;12.70;;;17.90;9.50;;;;;;4937299;29;20182;-75
2022/05/12 02:44:37;;;;;;;14.23;13.50;;;17.90;10.20;;;;;;4937234;29;20266;-74
2022/05/12 02:47:04;;;;;;;13.33;12.50;;;17.90;10.30;;;;;;4937126;29;20206;-74
2022/05/12 02:49:30;;;;;;;12.90;12.30;;;17.80;10.20;;;;;;4919703;29;20979;-75
2022/05/12 02:51:55;;;;;;;13.13;12.63;;;17.70;10.50;;;;;;4936999;29;20497;-73
2022/05/12 02:54:21;;;;;;;13.87;13.10;;;17.60;10.80;;;;;;4936971;29;20178;-75
2022/05/12 02:56:47;;;;;;;13.13;12.53;;;17.50;11.10;;;;;;4936899;29;20249;-75
2022/05/12 02:59:13;;;;;;;13.37;12.77;;;17.40;10.50;;;;;;4936851;29;20182;-75
2022/05/12 03:01:39;;;;;;;12.30;11.70;;;17.50;10.70;;;;;;4937001;29;20415;-75
2022/05/12 03:04:05;;;;;;;12.87;12.37;;;17.50;10.40;;;;;;4936918;29;20421;-75
2022/05/12 03:06:31;;;;;;;13.50;12.90;;;17.50;10.90;;;;;;4936821;29;20556;-75
2022/05/12 03:08:58;;;;;;;12.53;12.03;;;17.50;10.40;;;;;;4936457;29;20473;-75
2022/05/12 03:11:23;;;;;;;12.50;11.90;;;17.60;10.50;;;;;;4919848;29;21208;-76
2022/05/12 03:13:50;;;;;;;14.00;13.40;;;17.60;10.10;;;;;;4936729;29;20526;-75
2022/05/12 03:16:18;;;;;;;14.53;13.80;;;17.60;10.40;;;;;;4936481;29;20221;-75
2022/05/12 03:18:46;;;;;;;13.47;12.87;;;17.70;10.00;;;;;;4919510;29;20570;-76
2022/05/12 03:21:13;;;;;;;13.30;12.60;;;17.70;9.90;;;;;;4936621;29;20608;-76
2022/05/12 03:23:40;;;;;;;13.10;12.30;;;17.80;10.00;;;;;;4919423;29;20431;-75
2022/05/12 03:26:06;;;;;;;12.77;12.27;;;17.80;10.20;;;;;;4936573;29;20434;-75
2022/05/12 03:28:33;;;;;;;12.50;12.00;;;17.80;10.20;;;;;;4936113;29;20422;-76
2022/05/12 03:30:59;;;;;;;12.30;11.80;;;17.70;10.20;;;;;;4935912;29;20869;-74
2022/05/12 03:33:24;;;;;;;14.03;13.43;;;17.70;10.00;;;;;;4936206;29;20801;-74
2022/05/12 03:35:50;;;;;;;13.43;12.73;;;17.70;10.20;;;;;;4936131;29;20631;-74
2022/05/12 03:38:17;;;;;;;13.80;13.20;;;17.70;10.20;;;;;;4936025;29;20210;-74
2022/05/12 03:40:42;;;;;;;13.23;12.73;;;17.70;10.50;;;;;;4936270;29;20466;-75
2022/05/12 03:43:08;;;;;;;13.90;13.20;;;17.70;10.50;;;;;;4936238;29;20423;-75
2022/05/12 03:45:33;;;;;;;14.27;13.60;;;17.60;10.90;;;;;;4935957;29;20230;-74
2022/05/12 03:48:00;;;;;;;13.37;12.80;;;17.50;10.70;;;;;;4918748;29;20193;-73
2022/05/12 03:50:27;;;;;;;13.80;13.20;;;17.50;11.10;;;;;;4935927;29;20229;-74
2022/05/12 03:52:54;;;;;;;13.30;12.80;;;17.50;11.00;;;;;;4936033;29;20419;-75
2022/05/12 03:55:23;;;;;;;13.43;12.93;;;17.50;10.90;;;;;;4918913;29;20423;-75
2022/05/12 03:57:51;;;;;;;13.30;12.70;;;17.60;11.30;;;;;;4918551;29;20921;-75
2022/05/12 04:00:23;;;;;;;13.87;13.20;;;17.60;10.90;;;;;;4935854;29;20996;-75
2022/05/12 04:02:49;;;;;;;13.00;12.40;;;17.60;11.40;;;;;;4935832;29;20410;-75
2022/05/12 04:05:15;;;;;;;12.80;12.20;;;17.60;11.50;;;;;;4935580;29;20417;-77
2022/05/12 04:07:43;;;;;;;12.27;11.73;;;17.60;11.90;;;;;;4918489;29;20703;-74
2022/05/12 04:10:11;;;;;;;12.90;12.30;;;17.50;12.50;;;;;;4918592;29;20422;-74
2022/05/12 04:12:36;;;;;;;13.03;12.33;;;17.50;11.50;;;;;;4935488;29;20470;-75
2022/05/12 04:15:03;;;;;;;17.03;13.00;;;17.60;12.00;;;;;;4935593;29;20988;-74
2022/05/12 04:17:28;;;;;;;12.83;12.33;;;17.70;11.30;;;;;;4935123;29;20218;-74
2022/05/12 04:19:54;;;;;;;14.60;13.60;;;17.70;11.30;;;;;;4918341;29;20435;-73
2022/05/12 04:22:19;;;;;;;13.80;13.00;;;17.70;11.00;;;;;;4935420;29;20183;-74
2022/05/12 04:24:45;;;;;;;13.57;12.87;;;17.70;11.30;;;;;;4935443;29;20206;-74
2022/05/12 04:27:12;;;;;;;12.47;11.97;;;17.80;10.80;;;;;;4935054;29;20332;-74
2022/05/12 04:29:42;;;;;;;13.00;12.30;;;17.90;10.70;;;;;;4935377;29;20506;-75
2022/05/12 04:32:09;;;;;;;12.87;12.27;;;18.00;10.70;;;;;;4936054;29;20485;-75
2022/05/12 04:37:29;;;;;;;13.43;12.73;;;18.20;10.70;;;;;;4935316;29;20497;-75
2022/05/12 04:39:55;;;;;;;13.50;12.80;;;18.30;10.80;;;;;;4935221;29;20477;-75
2022/05/12 04:42:21;;;;;;;12.70;12.10;;;18.30;11.00;;;;;;4934471;29;20426;-73
2022/05/12 04:44:46;;;;;;;12.43;11.93;;;18.40;10.60;;;;;;4934951;29;20422;-75
2022/05/12 04:47:12;;;;;;;12.00;11.40;;;18.40;10.90;;;;;;4934875;29;20206;-75
2022/05/12 04:49:38;;;;;;;12.20;11.70;;;18.40;11.00;;;;;;4935172;29;20186;-75
2022/05/12 04:52:04;;;;;;;13.00;12.40;;;18.50;11.00;;;;;;4935095;29;20218;-75
2022/05/12 04:54:30;;;;;;;12.27;11.77;;;18.60;11.10;;;;;;4935112;29;20179;-74
2022/05/12 04:56:56;;;;;;;12.40;11.70;;;18.70;11.20;;;;;;4934933;29;20577;-74
2022/05/12 04:59:22;;;;;;;12.57;11.97;;;18.70;11.20;;;;;;4939148;29;20430;-75
2022/05/12 05:01:48;;;;;;;12.33;11.90;;;18.80;11.30;;;;;;4938848;29;20429;-73
2022/05/12 05:04:14;;;;;;;12.97;12.37;;;18.90;11.80;;;;;;4935241;29;20446;-75
2022/05/12 05:06:40;;;;;;;12.50;12.00;;;19.00;11.90;;;;;;4935126;29;20529;-74
2022/05/12 05:09:06;;;;;;;14.27;13.37;;;19.30;11.60;;;;;;4934871;29;20193;-74
2022/05/12 05:11:33;;;;;;;13.43;12.83;;;19.70;11.90;;;;;;4934960;29;20238;-74
2022/05/12 05:13:59;;;;;;;12.27;11.67;;;20.40;11.60;;;;;;4935082;29;20207;-75
2022/05/12 05:16:25;;;;;;;13.43;12.90;;;21.50;11.00;;;;;;4952395;23;20533;-76
2022/05/12 05:18:50;;;;;;;13.07;12.47;;;22.50;10.00;;;;;;4916371;29;20175;-74
2022/05/12 05:21:16;;;;;;;14.17;13.50;;;23.50;8.60;;;;;;4915772;29;20215;-74
2022/05/12 05:23:41;;;;;;;14.33;13.73;;;24.60;7.60;;;;;;4915513;29;20187;-74
2022/05/12 05:26:08;;;;;;;14.67;13.90;;;25.40;5.60;;;;;;4918682;29;20209;-74
2022/05/12 05:28:34;;;;;;;14.37;13.70;;;25.50;4.50;;;;;;4934313;29;20314;-74
2022/05/12 05:31:00;;;;;;;14.23;13.50;;;25.30;4.60;;;;;;4934574;29;20986;-74
2022/05/12 05:33:26;;;;;;;14.40;13.60;;;25.50;4.80;;;;;;4934483;29;20426;-74
2022/05/12 05:35:52;;;;;;;13.47;12.97;;;25.50;4.10;;;;;;4934476;29;20542;-74
2022/05/12 05:38:18;;;;;;;15.13;14.23;;;25.50;4.60;;;;;;4934149;29;20425;-74
2022/05/12 05:40:43;;;;;;;14.57;14.00;;;25.90;4.60;;;;;;4934781;29;20179;-74
2022/05/12 05:43:09;;;;;;;15.47;14.63;;;26.60;3.70;;;;;;4934719;29;20179;-75
2022/05/12 05:45:34;;;;;;;14.50;13.67;;;27.40;2.90;;;;;;4934726;29;20269;-74
2022/05/12 05:48:04;;;;;;;13.60;13.10;;;27.70;2.60;;;;;;4934125;29;20199;-75
2022/05/12 05:53:23;;;;;;;15.50;14.27;;;27.40;1.90;;;;;;4935180;29;20792;-74
2022/05/12 05:55:49;;;;;;;14.83;14.13;;;27.40;2.20;;;;;;4938051;29;20440;-74
2022/05/12 05:58:14;;;;;;;14.57;13.97;;;27.10;1.70;;;;;;4937789;29;20509;-75
2022/05/12 06:00:43;;;;;;;13.53;13.03;;;26.70;2.20;;;;;;4939094;29;20598;-75
2022/05/12 06:03:09;;;;;;;14.93;14.30;;;26.70;2.60;;;;;;4920891;29;20221;-75
2022/05/12 06:05:35;;;;;;;15.23;14.17;;;27.30;2.90;;;;;;4937936;29;20422;-74
2022/05/12 06:08:02;;;;;;;14.87;14.27;;;28.10;2.00;;;;;;4937267;29;20589;-74
2022/05/12 06:10:28;;;;;;;15.00;14.40;;;28.10;1.00;;;;;;4937752;29;20229;-74
2022/05/12 06:12:54;;;;;;;15.27;14.63;;;28.00;1.00;;;;;;4937689;29;20422;-74
2022/05/12 06:15:20;;;;;;;14.73;14.13;;;28.20;1.00;;;;;;4920653;29;20431;-74
2022/05/12 06:17:45;;;;;;;14.60;14.00;;;28.50;1.00;;;;;;4937396;29;20561;-74
2022/05/12 06:20:11;;;;;;;15.07;14.37;;;28.90;1.00;;;;;;4937993;29;20171;-74
2022/05/12 06:22:38;;;;;;;15.13;13.90;;;29.10;1.00;;;;;;4937329;29;20183;-74
2022/05/12 06:25:06;;;;;;;14.17;13.57;;;29.20;1.00;;;;;;4937438;29;20481;-74
2022/05/12 06:27:32;;;;;;;14.17;13.57;;;29.30;1.00;;;;;;4937336;29;20959;-74
2022/05/12 06:29:58;;;;;;;15.17;14.47;;;29.60;1.00;;;;;;4937728;29;20449;-75
2022/05/12 06:32:23;;;;;;;15.33;14.37;;;29.90;1.00;;;;;;4937364;29;20945;-75
2022/05/12 06:34:49;;;;;;;15.53;14.53;;;30.20;1.00;;;;;;4937298;29;20667;-74
2022/05/12 06:37:16;;;;;;;15.50;14.80;;;30.00;1.00;;;;;;4937102;29;20699;-73
2022/05/12 06:39:42;;;;;;;15.47;14.80;;;29.90;1.00;;;;;;4920141;29;20183;-74
2022/05/12 06:42:08;;;;;;;14.80;14.10;;;30.00;1.00;;;;;;4937282;29;20919;-74
2022/05/12 06:44:34;;;;;;;14.90;14.20;;;30.20;1.00;;;;;;4920853;29;20426;-74
2022/05/12 06:47:01;;;;;;;14.87;14.07;;;30.40;1.00;;;;;;4919967;29;20230;-74
2022/05/12 06:49:28;;;;;;;15.17;14.57;;;30.40;1.00;;;;;;4937147;29;20174;-75
2022/05/12 06:51:55;;;;;;;14.80;14.20;;;30.20;1.00;;;;;;4937276;29;20875;-75
2022/05/12 06:54:21;;;;;;;15.80;14.97;;;30.10;1.00;;;;;;4936923;29;20499;-75
2022/05/12 06:56:46;;;;;;;14.57;13.97;;;30.50;1.00;;;;;;4936857;29;20450;-75
2022/05/12 06:59:12;;;;;;;15.50;14.80;;;31.20;1.00;;;;;;4936614;29;20174;-75
2022/05/12 07:01:37;;;;;;;14.80;14.10;;;31.20;1.00;;;;;;4936933;29;20736;-74
2022/05/12 07:04:03;;;;;;;15.10;14.07;;;31.30;1.00;;;;;;4920115;29;20269;-77
2022/05/12 07:06:29;;;;;;;15.80;15.00;;;31.50;1.00;;;;;;4936064;29;20198;-76
2022/05/12 07:08:55;;;;;;;15.00;14.40;;;31.20;1.00;;;;;;4936441;29;20421;-76
2022/05/12 07:11:21;;;;;;;15.37;14.67;;;30.70;1.00;;;;;;4936525;29;20257;-76
2022/05/12 07:13:47;;;;;;;15.97;15.00;;;30.00;1.00;;;;;;4936759;29;20505;-77
2022/05/12 07:16:13;;;;;;;15.10;14.40;;;29.30;1.00;;;;;;4936518;29;20217;-76
2022/05/12 07:18:38;;;;;;;14.40;13.60;;;28.90;1.00;;;;;;4936221;29;20283;-76
2022/05/12 07:26:36;;;;;;;14.50;13.80;;;28.00;1.00;;;;;;4936718;29;21021;-75
2022/05/12 07:29:11;;;;;;;14.17;13.47;;;27.60;1.40;;;;;;4935980;29;20422;-74
2022/05/12 07:31:37;;;;;;;14.00;13.30;;;27.60;1.80;;;;;;4919137;29;20469;-74
2022/05/12 07:34:03;;;;;;;15.50;14.60;;;27.60;1.90;;;;;;4936305;29;20840;-75
2022/05/12 07:36:32;;;;;;;14.87;14.07;;;27.60;1.90;;;;;;4936252;29;20998;-75
2022/05/12 07:38:58;;;;;;;14.70;13.70;;;27.60;2.00;;;;;;4936015;29;20415;-74
2022/05/12 07:41:24;;;;;;;14.00;13.40;;;27.70;2.20;;;;;;4937100;29;20415;-74
2022/05/12 07:43:51;;;;;;;14.90;14.20;;;27.70;2.30;;;;;;4937425;29;20905;-74
2022/05/12 07:46:19;;;;;;;14.63;13.93;;;27.50;2.20;;;;;;4937911;29;20526;-74
2022/05/12 07:48:45;;;;;;;14.63;14.03;;;27.40;2.60;;;;;;4935699;29;20901;-75
2022/05/12 07:51:10;;;;;;;14.73;14.10;;;27.40;2.70;;;;;;4935902;29;20457;-74
2022/05/12 07:53:37;;;;;;;15.37;14.57;;;27.30;2.90;;;;;;4935938;29;20419;-75
2022/05/12 07:56:03;;;;;;;16.60;15.80;;;27.10;2.80;;;;;;4936402;29;20182;-74
2022/05/12 07:58:30;;;;;;;15.20;14.50;;;27.20;2.80;;;;;;4935359;29;20507;-74
2022/05/12 08:00:57;;;;;;;15.20;14.40;;;27.30;2.90;;;;;;4918639;29;20426;-74
2022/05/12 08:03:23;;;;;;;15.97;15.20;;;27.30;3.50;;;;;;4935921;29;20418;-75
2022/05/12 08:05:50;;;;;;;15.73;14.93;;;27.40;2.50;;;;;;4935489;29;20426;-75
2022/05/12 08:08:16;;;;;;;15.43;14.63;;;27.40;2.90;;;;;;4935442;29;20465;-74
2022/05/12 08:10:41;;;;;;;14.47;13.77;;;27.50;2.30;;;;;;4935548;29;20512;-74
2022/05/12 08:13:14;;;;;;;15.27;14.57;;;27.50;2.40;;;;;;4935445;29;20415;-74
2022/05/12 08:15:41;;;;;;;14.90;14.20;;;27.60;2.50;;;;;;4935626;29;20174;-75
2022/05/12 08:18:08;;;;;;;14.33;13.80;;;27.90;1.90;;;;;;4934240;29;20454;-74
2022/05/12 08:20:33;;;;;;;14.93;14.23;;;28.10;2.00;;;;;;4935512;29;20423;-74
2022/05/12 08:22:59;;;;;;;14.53;13.93;;;28.60;1.60;;;;;;4918452;29;20414;-75
2022/05/12 08:25:24;;;;;;;14.80;13.70;;;29.20;1.00;;;;;;4935335;29;20170;-75
2022/05/12 08:27:50;;;;;;;15.37;14.67;;;29.70;1.00;;;;;;4935197;29;20265;-75
2022/05/12 08:30:17;;;;;;;15.10;14.30;;;30.10;1.00;;;;;;4935369;29;20198;-75
2022/05/12 08:32:43;;;;;;;14.77;14.17;;;30.70;1.00;;;;;;4935025;29;20576;-75
2022/05/12 08:35:09;;;;;;;15.33;14.50;;;31.20;1.00;;;;;;4935042;29;20509;-75
2022/05/12 08:37:36;;;;;;;15.30;14.50;;;31.30;1.00;;;;;;4934800;29;20478;-75
2022/05/12 08:40:02;;;;;;;14.63;13.63;;;31.00;1.00;;;;;;4935214;29;20418;-74
2022/05/12 08:42:37;;;;;;;15.37;14.67;;;30.50;1.00;;;;;;4934948;29;20883;-75
2022/05/12 08:45:06;;;;;;;14.60;14.00;;;30.60;1.00;;;;;;4934970;29;20418;-75
2022/05/12 08:47:36;;;;;;;15.60;14.90;;;30.40;1.00;;;;;;4934651;29;20434;-75
2022/05/12 08:50:06;;;;;;;14.50;13.90;;;30.10;1.00;;;;;;4935014;29;20925;-74
2022/05/12 08:52:47;;;;;;;14.67;14.07;;;29.90;1.00;;;;;;4934844;29;20870;-74
2022/05/12 08:55:19;;;;;;;15.60;14.90;;;29.80;1.00;;;;;;4938604;29;20427;-75
2022/05/12 08:58:09;;;;;;;15.00;14.30;;;29.70;1.00;;;;;;4934677;29;20435;-75
2022/05/12 09:00:51;;;;;;;15.30;14.70;;;29.30;1.00;;;;;;4935722;29;20425;-75
2022/05/12 09:03:40;;;;;;;15.27;14.57;;;28.90;1.00;;;;;;4938733;29;20438;-75
2022/05/12 09:06:16;;;;;;;16.07;15.27;;;28.50;1.20;;;;;;4939627;29;20441;-74
2022/05/12 09:08:45;;;;;;;15.20;14.40;;;28.10;1.40;;;;;;4937225;29;20414;-75
2022/05/12 09:11:17;;;;;;;15.50;14.60;;;28.20;1.90;;;;;;4935113;29;20513;-74
2022/05/12 09:14:03;;;;;;;14.73;14.00;;;28.00;1.70;;;;;;4918431;29;20458;-75
2022/05/12 09:16:32;;;;;;;16.87;16.07;;;27.90;2.30;;;;;;4935012;29;20505;-75
2022/05/12 09:18:59;;;;;;;16.53;15.80;;;27.70;2.40;;;;;;4934997;29;20820;-75
2022/05/12 09:21:35;;;;;;;17.57;16.40;;;27.80;2.30;;;;;;4935079;29;20446;-75
2022/05/12 09:24:03;;;;;;;16.63;15.60;;;27.70;2.40;;;;;;4934987;29;20421;-75
2022/05/12 09:26:44;;;;;;;15.90;14.80;;;27.70;2.50;;;;;;4935206;29;20442;-76
2022/05/12 09:29:29;;;;;;;17.07;15.37;;;27.40;2.90;;;;;;4936148;29;20779;-74
2022/05/12 09:31:57;;;;;;;15.50;14.53;;;27.40;2.90;;;;;;4938707;29;20465;-74
2022/05/12 09:34:30;;;;;;;15.20;14.40;;;27.30;2.90;;;;;;4938907;29;20429;-75
2022/05/12 09:36:56;;;;;;;14.70;13.97;;;27.30;2.90;;;;;;4938625;29;20529;-75
2022/05/12 09:39:40;;;;;;;15.27;14.53;;;27.20;2.80;;;;;;4938447;29;20450;-75
2022/05/12 09:42:09;;;;;;;16.40;15.57;;;27.20;2.80;;;;;;4921608;29;20692;-75
2022/05/12 09:44:34;;;;;;;16.40;15.63;;;27.30;2.90;;;;;;4938307;29;20430;-75
2022/05/12 09:47:12;;;;;;;16.40;15.30;;;27.30;2.90;;;;;;4938279;29;20529;-75
2022/05/12 09:49:44;;;;;;;16.37;15.30;;;27.10;2.80;;;;;;4921495;29;20187;-75
2022/05/12 09:52:39;;;;;;;15.53;14.83;;;27.10;2.80;;;;;;4938390;29;20966;-74
2022/05/12 09:55:16;;;;;;;14.80;14.00;;;27.20;2.80;;;;;;4938191;29;20473;-74
2022/05/12 09:58:13;;;;;;;15.57;14.73;;;27.10;2.80;;;;;;4937891;29;20486;-74
2022/05/12 10:00:43;;;;;;;16.17;15.37;;;27.20;2.80;;;;;;4935126;29;20493;-76
2022/05/12 10:09:23;;;;;;;16.10;15.40;;;26.90;3.60;;;;;;4937783;29;20418;-74
2022/05/12 10:11:57;;;;;;;16.70;15.90;;;27.10;3.10;;;;;;4937819;29;20462;-74
2022/05/12 10:14:48;;;;;;;16.13;15.47;;;26.90;3.20;;;;;;4937790;29;20427;-74
2022/05/12 10:17:49;;;;;;;16.43;15.73;;;26.80;3.20;;;;;;4937135;29;20819;-74
2022/05/12 10:20:27;;;;;;;17.10;16.30;;;26.70;3.20;;;;;;4920801;29;20452;-73
2022/05/12 10:23:05;;;;;;;17.13;16.13;;;26.80;3.40;;;;;;4937782;29;20426;-74
2022/05/12 10:26:12;;;;;;;15.67;14.87;;;26.60;3.70;;;;;;4937869;29;20835;-74
2022/05/12 10:28:55;;;;;;;17.07;16.17;;;26.60;4.20;;;;;;4937464;29;20901;-73
2022/05/12 10:31:32;;;;;;;16.70;15.80;;;26.70;3.40;;;;;;4938474;29;20461;-74
2022/05/12 10:34:16;;;;;;;16.30;15.50;;;26.70;3.70;;;;;;4939429;29;20425;-73
2022/05/12 10:37:12;;;;;;;16.00;15.30;;;26.90;3.20;;;;;;4938740;29;20449;-73
2022/05/12 10:39:40;;;;;;;16.57;15.87;;;27.10;3.30;;;;;;4920785;29;20426;-73
2022/05/12 10:42:30;;;;;;;16.80;15.90;;;27.30;2.90;;;;;;4936498;29;20433;-73
2022/05/12 10:45:18;;;;;;;16.90;15.80;;;27.40;2.90;;;;;;4937415;29;20418;-75
2022/05/12 10:48:15;;;;;;;16.53;15.73;;;27.50;3.00;;;;;;4919865;29;20882;-75
2022/05/12 10:51:00;;;;;;;17.00;16.10;;;26.90;3.80;;;;;;4933954;29;20797;-75
2022/05/12 10:53:48;;;;;;;18.23;17.13;;;26.80;4.30;;;;;;4937558;29;20430;-75
2022/05/12 10:56:39;;;;;;;17.80;16.90;;;26.90;3.60;;;;;;4937011;29;20438;-76
2022/05/12 10:59:34;;;;;;;17.47;16.23;;;26.70;3.40;;;;;;4936968;29;20570;-75
2022/05/12 11:02:12;;;;;;;15.87;15.07;;;26.60;4.60;;;;;;4936827;29;20469;-76
2022/05/12 11:04:46;;;;;;;16.17;15.37;;;26.60;4.60;;;;;;4936909;29;20477;-75
2022/05/12 11:07:22;;;;;;;16.07;15.30;;;26.70;4.60;;;;;;4936937;29;21014;-75
2022/05/12 11:10:03;;;;;;;16.70;15.90;;;26.60;5.20;;;;;;4936828;29;20442;-74
2022/05/12 11:12:49;;;;;;;16.27;15.37;;;26.80;4.20;;;;;;4936931;29;20810;-74
2022/05/12 11:15:25;;;;;;;17.20;16.27;;;26.90;3.20;;;;;;4936699;29;20429;-74
2022/05/12 11:18:10;;;;;;;17.63;16.83;;;27.10;3.70;;;;;;4936680;29;20556;-75
2022/05/12 11:20:41;;;;;;;17.80;16.90;;;27.20;3.60;;;;;;4936562;29;20793;-74
2022/05/12 11:23:54;;;;;;;17.17;16.37;;;27.30;3.50;;;;;;4936732;29;20434;-74
2022/05/12 11:26:53;;;;;;;17.80;17.03;;;27.20;3.50;;;;;;4914440;29;20875;-74
2022/05/12 11:29:48;;;;;;;17.53;16.17;;;27.10;4.10;;;;;;4936785;29;20421;-76
2022/05/12 11:32:28;;;;;;;15.57;14.77;;;27.10;4.10;;;;;;4936625;29;20458;-74
2022/05/12 11:35:03;;;;;;;16.00;15.00;;;26.90;4.80;;;;;;4936761;29;20558;-75
2022/05/12 11:37:36;;;;;;;16.60;15.80;;;27.10;4.40;;;;;;4935868;29;20437;-75
2022/05/12 11:40:09;;;;;;;16.60;15.80;;;27.00;4.50;;;;;;4936594;29;20869;-74
2022/05/12 11:45:42;;;;;;;16.80;16.00;;;27.20;3.90;;;;;;4936169;29;20854;-73
2022/05/12 11:48:35;;;;;;;16.50;15.80;;;27.20;4.40;;;;;;4936049;29;20451;-73
2022/05/12 11:51:11;;;;;;;16.23;15.53;;;27.40;3.90;;;;;;4936332;29;20506;-74
2022/05/12 11:53:55;;;;;;;16.63;15.83;;;27.50;3.90;;;;;;4935992;29;20450;-74
2022/05/12 11:56:53;;;;;;;17.80;16.83;;;27.10;4.30;;;;;;4935950;29;20430;-74
2022/05/12 11:59:28;;;;;;;16.97;16.10;;;27.70;3.90;;;;;;4914741;29;20423;-75
2022/05/12 12:02:28;;;;;;;16.13;15.43;;;28.20;3.30;;;;;;4935927;29;20414;-76
2022/05/12 12:04:57;;;;;;;16.70;15.23;;;28.60;2.80;;;;;;4918657;29;20423;-75
2022/05/12 12:07:32;;;;;;;18.30;16.93;;;29.00;1.70;;;;;;4935509;29;20435;-76
2022/05/12 12:10:03;;;;;;;16.60;15.83;;;29.60;1.00;;;;;;4935749;29;20457;-75
2022/05/12 12:12:42;;;;;;;15.67;14.87;;;29.60;1.00;;;;;;4935919;29;20454;-74
2022/05/12 12:15:30;;;;;;;17.20;16.23;;;29.90;1.00;;;;;;4935622;29;20480;-74
2022/05/12 12:17:57;;;;;;;16.07;15.37;;;30.30;1.00;;;;;;4929928;29;20537;-74
2022/05/12 12:20:32;;;;;;;17.50;16.60;;;30.40;1.00;;;;;;4935711;29;20820;-74
2022/05/12 12:23:30;;;;;;;17.27;16.43;;;30.50;1.00;;;;;;4935460;29;20418;-74
2022/05/12 12:26:05;;;;;;;16.83;16.13;;;30.70;1.00;;;;;;4927666;29;20435;-74
2022/05/12 12:28:54;;;;;;;16.23;15.53;;;30.70;1.00;;;;;;4935238;29;20900;-73
2022/05/12 12:31:37;;;;;;;16.33;15.47;;;30.70;1.00;;;;;;4935350;29;20884;-73
2022/05/12 12:34:17;;;;;;;16.77;15.97;;;30.80;1.00;;;;;;4935486;29;20411;-73
2022/05/12 12:36:54;;;;;;;17.57;16.70;;;30.50;1.00;;;;;;4935639;29;20477;-73
2022/05/12 12:39:39;;;;;;;17.97;16.80;;;30.70;1.00;;;;;;4933787;29;20421;-73
2022/05/12 12:42:19;;;;;;;17.63;16.83;;;30.90;1.00;;;;;;4935318;29;20808;-73
2022/05/12 12:44:50;;;;;;;17.60;16.70;;;31.00;1.00;;;;;;4935393;29;20418;-74
2022/05/12 12:47:28;;;;;;;16.97;16.00;;;31.00;1.00;;;;;;4935078;29;20820;-73
2022/05/12 12:50:03;;;;;;;17.90;17.00;;;30.50;1.00;;;;;;4935355;29;20422;-74
2022/05/12 12:52:29;;;;;;;17.60;16.70;;;29.90;1.00;;;;;;4935212;29;20500;-73
2022/05/12 12:57:51;;;;;;;17.43;16.53;;;29.90;1.00;;;;;;4934985;29;20286;-74
2022/05/12 13:00:33;;;;;;;17.47;16.70;;;29.80;1.00;;;;;;4934944;29;20410;-74
2022/05/12 13:03:23;;;;;;;17.00;16.20;;;30.10;1.00;;;;;;4934795;29;20450;-74
2022/05/12 13:05:49;;;;;;;18.33;16.80;;;30.20;1.00;;;;;;4934437;29;20423;-74
2022/05/12 13:08:27;;;;;;;17.70;16.90;;;29.70;1.00;;;;;;4934541;29;20971;-75
2022/05/12 13:11:00;;;;;;;18.13;17.30;;;29.90;1.00;;;;;;4934853;29;20202;-74
2022/05/12 13:13:27;;;;;;;17.43;16.43;;;30.10;1.00;;;;;;4933514;29;20434;-74
2022/05/12 13:16:04;;;;;;;17.13;16.30;;;30.20;1.00;;;;;;4934709;29;20794;-74
2022/05/12 13:18:34;;;;;;;17.03;16.13;;;30.20;1.00;;;;;;4934948;29;20414;-74